Terminal Aerodrome Forecast
Issued by NWS

Home | Current Version | Previous Version | Graphics & Text | Print | Product List | Glossary Off
Versions: 1 2 3 4 5 6 7 8 9 10 11 12 13 14 15 16 17 18 19 20

000
FTUS43 KLSX 221700
TAFSUS
TAF
KSUS 221723Z 2218/2318 VRB04KT P6SM SCT070 BKN250
     FM222000 24006KT P6SM FEW050 BKN250
     FM230100 VRB03KT P6SM BKN250
     FM230900 24004KT P6SM BKN080=

USA.gov is the U.S. government's official web portal to all federal, state and local government web resources and services.